sensor_id;sensor_type;location;lat;lon;timestamp;pressure;altitude;pressure_sealevel;temperature;humidity
45129;BME280;35512;56.312;101.728;2022-07-23T00:01:00;94617.47;;;18.26;62.16
45129;BME280;35512;56.312;101.728;2022-07-23T00:03:30;94632.00;;;18.22;62.31
45129;BME280;35512;56.312;101.728;2022-07-23T00:05:59;94643.84;;;18.19;62.34
45129;BME280;35512;56.312;101.728;2022-07-23T00:08:27;94635.97;;;18.12;62.50
45129;BME280;35512;56.312;101.728;2022-07-23T00:10:56;94636.44;;;18.11;62.26
45129;BME280;35512;56.312;101.728;2022-07-23T00:13:25;94630.66;;;18.08;62.53
45129;BME280;35512;56.312;101.728;2022-07-23T00:15:54;94629.59;;;18.06;62.52
45129;BME280;35512;56.312;101.728;2022-07-23T00:18:23;94616.09;;;18.12;62.70
45129;BME280;35512;56.312;101.728;2022-07-23T00:20:53;94619.88;;;18.23;62.49
45129;BME280;35512;56.312;101.728;2022-07-23T00:23:22;94625.34;;;18.33;62.33
45129;BME280;35512;56.312;101.728;2022-07-23T00:25:53;94630.63;;;18.46;62.03
45129;BME280;35512;56.312;101.728;2022-07-23T00:28:22;94637.59;;;18.56;62.02
45129;BME280;35512;56.312;101.728;2022-07-23T00:30:51;94641.38;;;18.68;61.78
45129;BME280;35512;56.312;101.728;2022-07-23T00:33:21;94648.19;;;18.82;61.52
45129;BME280;35512;56.312;101.728;2022-07-23T00:35:49;94642.53;;;18.95;61.37
45129;BME280;35512;56.312;101.728;2022-07-23T00:38:18;94641.47;;;19.01;61.29
45129;BME280;35512;56.312;101.728;2022-07-23T00:40:47;94638.84;;;19.07;60.93
45129;BME280;35512;56.312;101.728;2022-07-23T00:43:16;94640.50;;;19.14;61.20
45129;BME280;35512;56.312;101.728;2022-07-23T00:45:45;94627.13;;;19.16;60.95
45129;BME280;35512;56.312;101.728;2022-07-23T00:48:14;94641.22;;;19.23;60.88
45129;BME280;35512;56.312;101.728;2022-07-23T00:50:43;94629.97;;;19.31;60.87
45129;BME280;35512;56.312;101.728;2022-07-23T00:53:12;94645.72;;;19.36;60.49
45129;BME280;35512;56.312;101.728;2022-07-23T00:55:42;94645.09;;;19.41;60.85
45129;BME280;35512;56.312;101.728;2022-07-23T00:58:11;94644.91;;;19.54;60.68
45129;BME280;35512;56.312;101.728;2022-07-23T01:00:40;94633.13;;;19.63;60.47
45129;BME280;35512;56.312;101.728;2022-07-23T01:03:09;94637.75;;;19.81;60.15
45129;BME280;35512;56.312;101.728;2022-07-23T01:05:39;94637.34;;;19.97;59.83
45129;BME280;35512;56.312;101.728;2022-07-23T01:08:08;94641.28;;;20.20;59.69
45129;BME280;35512;56.312;101.728;2022-07-23T01:10:36;94642.00;;;20.45;59.16
45129;BME280;35512;56.312;101.728;2022-07-23T01:13:08;94633.59;;;20.64;58.99
45129;BME280;35512;56.312;101.728;2022-07-23T01:15:38;94637.09;;;20.79;58.63
45129;BME280;35512;56.312;101.728;2022-07-23T01:18:08;94635.47;;;21.02;58.47
45129;BME280;35512;56.312;101.728;2022-07-23T01:20:38;94634.78;;;21.37;57.96
45129;BME280;35512;56.312;101.728;2022-07-23T01:23:08;94617.19;;;21.65;57.30
45129;BME280;35512;56.312;101.728;2022-07-23T01:25:52;94630.00;;;21.88;57.10
45129;BME280;35512;56.312;101.728;2022-07-23T01:28:21;94625.59;;;21.97;56.72
45129;BME280;35512;56.312;101.728;2022-07-23T01:30:51;94629.84;;;21.98;56.52
45129;BME280;35512;56.312;101.728;2022-07-23T01:33:20;94638.31;;;21.94;56.57
45129;BME280;35512;56.312;101.728;2022-07-23T01:35:50;94634.94;;;21.84;57.06
45129;BME280;35512;56.312;101.728;2022-07-23T01:38:23;94635.13;;;21.81;56.79
45129;BME280;35512;56.312;101.728;2022-07-23T01:40:52;94640.72;;;21.86;57.00
45129;BME280;35512;56.312;101.728;2022-07-23T01:43:28;94636.25;;;21.89;56.77
45129;BME280;35512;56.312;101.728;2022-07-23T01:45:57;94647.66;;;22.02;56.65
45129;BME280;35512;56.312;101.728;2022-07-23T01:48:32;94643.50;;;22.12;56.53
45129;BME280;35512;56.312;101.728;2022-07-23T01:51:42;94647.69;;;22.28;56.04
45129;BME280;35512;56.312;101.728;2022-07-23T01:54:37;94622.69;;;22.47;55.76
45129;BME280;35512;56.312;101.728;2022-07-23T01:57:09;94632.38;;;22.42;55.36
45129;BME280;35512;56.312;101.728;2022-07-23T01:59:47;94622.47;;;22.30;55.63
45129;BME280;35512;56.312;101.728;2022-07-23T02:02:25;94621.06;;;22.35;55.59
45129;BME280;35512;56.312;101.728;2022-07-23T02:04:57;94621.75;;;22.56;55.25
45129;BME280;35512;56.312;101.728;2022-07-23T02:07:26;94606.41;;;22.75;54.92
45129;BME280;35512;56.312;101.728;2022-07-23T02:10:01;94606.91;;;23.00;54.57
45129;BME280;35512;56.312;101.728;2022-07-23T02:12:30;94609.56;;;23.21;54.26
45129;BME280;35512;56.312;101.728;2022-07-23T02:15:19;94605.19;;;23.40;54.01
45129;BME280;35512;56.312;101.728;2022-07-23T02:17:49;94603.78;;;23.56;53.52
45129;BME280;35512;56.312;101.728;2022-07-23T02:20:18;94602.81;;;23.65;53.44
45129;BME280;35512;56.312;101.728;2022-07-23T02:22:47;94585.00;;;23.60;53.12
45129;BME280;35512;56.312;101.728;2022-07-23T02:25:16;94597.28;;;23.59;53.13
45129;BME280;35512;56.312;101.728;2022-07-23T02:27:45;94606.78;;;23.58;53.22
45129;BME280;35512;56.312;101.728;2022-07-23T02:30:14;94611.53;;;23.52;53.11
45129;BME280;35512;56.312;101.728;2022-07-23T02:32:43;94606.72;;;23.47;52.94
45129;BME280;35512;56.312;101.728;2022-07-23T02:35:12;94611.69;;;23.37;52.83
45129;BME280;35512;56.312;101.728;2022-07-23T02:37:41;94613.56;;;23.20;53.03
45129;BME280;35512;56.312;101.728;2022-07-23T02:40:11;94609.69;;;23.06;53.28
45129;BME280;35512;56.312;101.728;2022-07-23T02:42:43;94612.63;;;22.96;53.15
45129;BME280;35512;56.312;101.728;2022-07-23T02:45:12;94611.50;;;22.83;53.24
45129;BME280;35512;56.312;101.728;2022-07-23T02:47:41;94609.41;;;22.72;53.36
45129;BME280;35512;56.312;101.728;2022-07-23T02:50:10;94609.00;;;22.85;53.18
45129;BME280;35512;56.312;101.728;2022-07-23T02:52:40;94614.06;;;23.18;52.96
45129;BME280;35512;56.312;101.728;2022-07-23T02:55:09;94615.84;;;23.27;52.58
45129;BME280;35512;56.312;101.728;2022-07-23T02:57:39;94623.91;;;23.31;52.42
45129;BME280;35512;56.312;101.728;2022-07-23T03:00:08;94619.91;;;23.32;52.35
45129;BME280;35512;56.312;101.728;2022-07-23T03:02:39;94626.88;;;23.27;52.32
45129;BME280;35512;56.312;101.728;2022-07-23T03:05:08;94623.06;;;23.19;52.60
45129;BME280;35512;56.312;101.728;2022-07-23T03:07:39;94625.97;;;23.09;52.79
45129;BME280;35512;56.312;101.728;2022-07-23T03:10:08;94624.69;;;23.05;53.16
45129;BME280;35512;56.312;101.728;2022-07-23T03:12:37;94618.31;;;23.19;52.92
45129;BME280;35512;56.312;101.728;2022-07-23T03:15:06;94621.75;;;23.52;52.76
45129;BME280;35512;56.312;101.728;2022-07-23T03:17:35;94617.94;;;23.87;52.50
45129;BME280;35512;56.312;101.728;2022-07-23T03:20:05;94620.47;;;24.68;51.67
45129;BME280;35512;56.312;101.728;2022-07-23T03:22:34;94611.63;;;25.83;50.18
45129;BME280;35512;56.312;101.728;2022-07-23T03:25:04;94605.78;;;26.09;49.24
45129;BME280;35512;56.312;101.728;2022-07-23T03:27:35;94617.72;;;26.34;49.10
45129;BME280;35512;56.312;101.728;2022-07-23T03:30:04;94617.66;;;26.45;48.70
45129;BME280;35512;56.312;101.728;2022-07-23T03:32:34;94619.38;;;26.54;48.36
45129;BME280;35512;56.312;101.728;2022-07-23T03:35:03;94610.75;;;26.63;48.22
45129;BME280;35512;56.312;101.728;2022-07-23T03:37:41;94613.53;;;26.63;47.83
45129;BME280;35512;56.312;101.728;2022-07-23T03:40:14;94616.81;;;26.62;47.72
45129;BME280;35512;56.312;101.728;2022-07-23T03:42:44;94611.56;;;26.53;47.42
45129;BME280;35512;56.312;101.728;2022-07-23T03:45:14;94613.41;;;26.39;47.57
45129;BME280;35512;56.312;101.728;2022-07-23T03:47:43;94611.81;;;26.02;47.60
45129;BME280;35512;56.312;101.728;2022-07-23T03:50:14;94618.19;;;25.68;47.98
45129;BME280;35512;56.312;101.728;2022-07-23T03:52:43;94621.25;;;25.53;48.11
45129;BME280;35512;56.312;101.728;2022-07-23T03:55:12;94621.28;;;25.36;48.17
45129;BME280;35512;56.312;101.728;2022-07-23T03:57:41;94613.97;;;25.27;48.10
45129;BME280;35512;56.312;101.728;2022-07-23T04:00:11;94619.50;;;25.27;48.24
45129;BME280;35512;56.312;101.728;2022-07-23T04:02:42;94616.22;;;25.29;48.25
45129;BME280;35512;56.312;101.728;2022-07-23T04:05:13;94622.28;;;25.44;48.17
45129;BME280;35512;56.312;101.728;2022-07-23T04:07:43;94624.72;;;25.76;47.65
45129;BME280;35512;56.312;101.728;2022-07-23T04:10:12;94624.66;;;25.88;47.99
45129;BME280;35512;56.312;101.728;2022-07-23T04:12:41;94615.88;;;25.89;47.82
45129;BME280;35512;56.312;101.728;2022-07-23T04:15:10;94617.66;;;25.87;47.65
45129;BME280;35512;56.312;101.728;2022-07-23T04:17:39;94614.91;;;25.70;47.69
45129;BME280;35512;56.312;101.728;2022-07-23T04:20:09;94627.03;;;25.55;47.53
45129;BME280;35512;56.312;101.728;2022-07-23T04:22:45;94621.50;;;25.44;47.73
45129;BME280;35512;56.312;101.728;2022-07-23T04:25:14;94615.00;;;25.19;47.63
45129;BME280;35512;56.312;101.728;2022-07-23T04:27:45;94630.56;;;25.05;47.86
45129;BME280;35512;56.312;101.728;2022-07-23T04:30:15;94627.53;;;24.97;48.00
45129;BME280;35512;56.312;101.728;2022-07-23T04:32:44;94618.75;;;24.93;47.99
45129;BME280;35512;56.312;101.728;2022-07-23T04:35:20;94635.31;;;24.93;47.95
45129;BME280;35512;56.312;101.728;2022-07-23T04:37:52;94638.09;;;24.87;47.95
45129;BME280;35512;56.312;101.728;2022-07-23T04:40:20;94628.75;;;24.68;48.23
45129;BME280;35512;56.312;101.728;2022-07-23T04:42:49;94637.22;;;24.53;48.50
45129;BME280;35512;56.312;101.728;2022-07-23T04:45:18;94633.94;;;24.26;48.59
45129;BME280;35512;56.312;101.728;2022-07-23T04:47:49;94643.84;;;24.01;49.00
45129;BME280;35512;56.312;101.728;2022-07-23T04:50:18;94634.00;;;23.88;49.11
45129;BME280;35512;56.312;101.728;2022-07-23T04:52:53;94637.69;;;23.74;49.17
45129;BME280;35512;56.312;101.728;2022-07-23T04:55:22;94649.31;;;23.52;49.26
45129;BME280;35512;56.312;101.728;2022-07-23T04:57:52;94643.63;;;23.23;49.58
45129;BME280;35512;56.312;101.728;2022-07-23T05:00:22;94640.66;;;23.01;50.08
45129;BME280;35512;56.312;101.728;2022-07-23T05:02:52;94639.38;;;22.96;50.19
45129;BME280;35512;56.312;101.728;2022-07-23T05:05:21;94640.47;;;23.04;50.36
45129;BME280;35512;56.312;101.728;2022-07-23T05:07:52;94636.94;;;23.04;50.05
45129;BME280;35512;56.312;101.728;2022-07-23T05:10:21;94631.75;;;23.11;50.04
45129;BME280;35512;56.312;101.728;2022-07-23T05:12:53;94634.09;;;23.24;50.16
45129;BME280;35512;56.312;101.728;2022-07-23T05:15:23;94638.25;;;23.46;49.96
45129;BME280;35512;56.312;101.728;2022-07-23T05:17:52;94630.91;;;23.75;49.77
45129;BME280;35512;56.312;101.728;2022-07-23T05:20:21;94636.09;;;24.10;49.24
45129;BME280;35512;56.312;101.728;2022-07-23T05:22:49;94628.97;;;24.53;49.03
45129;BME280;35512;56.312;101.728;2022-07-23T05:25:18;94629.31;;;25.00;48.40
45129;BME280;35512;56.312;101.728;2022-07-23T05:27:47;94627.03;;;25.61;47.35
45129;BME280;35512;56.312;101.728;2022-07-23T05:30:16;94626.63;;;25.98;46.96
45129;BME280;35512;56.312;101.728;2022-07-23T05:32:47;94632.38;;;26.18;46.81
45129;BME280;35512;56.312;101.728;2022-07-23T05:35:18;94631.56;;;26.28;46.73
45129;BME280;35512;56.312;101.728;2022-07-23T05:37:59;94632.13;;;26.21;46.49
45129;BME280;35512;56.312;101.728;2022-07-23T05:40:28;94619.53;;;26.20;46.68
45129;BME280;35512;56.312;101.728;2022-07-23T05:42:57;94622.25;;;26.37;46.71
45129;BME280;35512;56.312;101.728;2022-07-23T05:45:26;94626.72;;;26.46;46.89
45129;BME280;35512;56.312;101.728;2022-07-23T05:47:55;94633.00;;;26.46;46.42
45129;BME280;35512;56.312;101.728;2022-07-23T05:50:33;94629.06;;;26.30;46.71
45129;BME280;35512;56.312;101.728;2022-07-23T05:53:11;94619.13;;;25.88;46.87
45129;BME280;35512;56.312;101.728;2022-07-23T05:56:00;94625.78;;;25.39;47.28
45129;BME280;35512;56.312;101.728;2022-07-23T05:58:31;94627.28;;;24.89;47.55
45129;BME280;35512;56.312;101.728;2022-07-23T06:01:01;94629.22;;;24.43;48.06
45129;BME280;35512;56.312;101.728;2022-07-23T06:03:37;94618.59;;;24.13;48.44
45129;BME280;35512;56.312;101.728;2022-07-23T06:06:07;94618.28;;;24.00;48.82
45129;BME280;35512;56.312;101.728;2022-07-23T06:08:36;94620.03;;;23.98;48.92
45129;BME280;35512;56.312;101.728;2022-07-23T06:11:08;94623.25;;;23.90;48.97
45129;BME280;35512;56.312;101.728;2022-07-23T06:13:37;94624.69;;;23.80;49.40
45129;BME280;35512;56.312;101.728;2022-07-23T06:16:07;94623.13;;;23.73;49.48
45129;BME280;35512;56.312;101.728;2022-07-23T06:18:36;94623.34;;;23.64;49.75
45129;BME280;35512;56.312;101.728;2022-07-23T06:21:05;94630.03;;;23.52;50.08
45129;BME280;35512;56.312;101.728;2022-07-23T06:23:54;94625.41;;;23.32;50.22
45129;BME280;35512;56.312;101.728;2022-07-23T06:26:24;94622.97;;;23.07;50.54
45129;BME280;35512;56.312;101.728;2022-07-23T06:28:53;94618.28;;;22.87;50.72
45129;BME280;35512;56.312;101.728;2022-07-23T06:31:22;94615.81;;;22.63;51.01
45129;BME280;35512;56.312;101.728;2022-07-23T06:33:50;94624.13;;;22.42;51.39
45129;BME280;35512;56.312;101.728;2022-07-23T06:36:19;94629.50;;;22.10;52.01
45129;BME280;35512;56.312;101.728;2022-07-23T06:38:49;94625.75;;;21.87;52.65
45129;BME280;35512;56.312;101.728;2022-07-23T06:41:18;94631.00;;;21.70;53.06
45129;BME280;35512;56.312;101.728;2022-07-23T06:43:47;94634.47;;;21.50;53.37
45129;BME280;35512;56.312;101.728;2022-07-23T06:46:17;94622.00;;;21.34;53.94
45129;BME280;35512;56.312;101.728;2022-07-23T06:48:46;94616.38;;;21.23;54.30
45129;BME280;35512;56.312;101.728;2022-07-23T06:51:15;94616.91;;;21.27;54.39
45129;BME280;35512;56.312;101.728;2022-07-23T06:53:44;94615.06;;;21.39;54.66
45129;BME280;35512;56.312;101.728;2022-07-23T06:56:13;94612.50;;;21.50;54.66
45129;BME280;35512;56.312;101.728;2022-07-23T06:58:42;94605.88;;;21.57;54.39
45129;BME280;35512;56.312;101.728;2022-07-23T07:01:11;94618.34;;;21.58;54.82
45129;BME280;35512;56.312;101.728;2022-07-23T07:03:41;94616.75;;;21.51;54.65
45129;BME280;35512;56.312;101.728;2022-07-23T07:06:10;94621.03;;;21.37;54.94
45129;BME280;35512;56.312;101.728;2022-07-23T07:08:39;94624.19;;;21.30;55.29
45129;BME280;35512;56.312;101.728;2022-07-23T07:11:08;94618.03;;;21.35;55.74
45129;BME280;35512;56.312;101.728;2022-07-23T07:13:37;94623.19;;;21.48;55.61
45129;BME280;35512;56.312;101.728;2022-07-23T07:16:07;94622.38;;;21.57;55.88
45129;BME280;35512;56.312;101.728;2022-07-23T07:18:36;94622.91;;;21.61;55.70
45129;BME280;35512;56.312;101.728;2022-07-23T07:21:05;94620.34;;;21.57;55.71
45129;BME280;35512;56.312;101.728;2022-07-23T07:23:34;94632.16;;;21.64;55.82
45129;BME280;35512;56.312;101.728;2022-07-23T07:26:02;94630.84;;;21.59;55.91
45129;BME280;35512;56.312;101.728;2022-07-23T07:28:31;94626.03;;;21.54;55.96
45129;BME280;35512;56.312;101.728;2022-07-23T07:31:00;94622.94;;;21.46;56.12
45129;BME280;35512;56.312;101.728;2022-07-23T07:33:30;94618.03;;;21.35;56.16
45129;BME280;35512;56.312;101.728;2022-07-23T07:35:59;94619.19;;;21.28;56.27
45129;BME280;35512;56.312;101.728;2022-07-23T07:38:28;94622.53;;;21.18;56.44
45129;BME280;35512;56.312;101.728;2022-07-23T07:40:57;94627.16;;;21.11;56.73
45129;BME280;35512;56.312;101.728;2022-07-23T07:43:26;94625.06;;;21.06;57.01
45129;BME280;35512;56.312;101.728;2022-07-23T07:45:55;94625.84;;;21.07;57.20
45129;BME280;35512;56.312;101.728;2022-07-23T07:48:24;94629.91;;;21.11;57.12
45129;BME280;35512;56.312;101.728;2022-07-23T07:50:53;94627.59;;;21.25;57.02
45129;BME280;35512;56.312;101.728;2022-07-23T07:53:22;94631.44;;;21.48;56.93
45129;BME280;35512;56.312;101.728;2022-07-23T07:55:52;94618.09;;;21.76;56.75
45129;BME280;35512;56.312;101.728;2022-07-23T07:58:21;94618.28;;;22.14;56.26
45129;BME280;35512;56.312;101.728;2022-07-23T08:00:51;94621.50;;;22.54;55.96
45129;BME280;35512;56.312;101.728;2022-07-23T08:03:21;94617.78;;;22.89;55.52
45129;BME280;35512;56.312;101.728;2022-07-23T08:05:50;94627.41;;;22.99;55.05
45129;BME280;35512;56.312;101.728;2022-07-23T08:08:19;94622.63;;;23.00;55.00
45129;BME280;35512;56.312;101.728;2022-07-23T08:10:47;94622.81;;;22.90;54.85
45129;BME280;35512;56.312;101.728;2022-07-23T08:13:16;94618.44;;;22.78;55.00
45129;BME280;35512;56.312;101.728;2022-07-23T08:15:45;94622.41;;;22.71;54.89
45129;BME280;35512;56.312;101.728;2022-07-23T08:18:15;94624.56;;;22.61;54.98
45129;BME280;35512;56.312;101.728;2022-07-23T08:20:44;94632.84;;;22.41;55.30
45129;BME280;35512;56.312;101.728;2022-07-23T08:23:13;94629.50;;;22.10;55.40
45129;BME280;35512;56.312;101.728;2022-07-23T08:25:42;94632.19;;;21.84;55.76
45129;BME280;35512;56.312;101.728;2022-07-23T08:28:12;94626.41;;;21.61;56.23
45129;BME280;35512;56.312;101.728;2022-07-23T08:30:43;94631.34;;;21.42;56.70
45129;BME280;35512;56.312;101.728;2022-07-23T08:33:14;94633.97;;;21.16;57.05
45129;BME280;35512;56.312;101.728;2022-07-23T08:36:03;94640.13;;;20.96;57.56
45129;BME280;35512;56.312;101.728;2022-07-23T08:38:32;94644.50;;;20.88;57.79
45129;BME280;35512;56.312;101.728;2022-07-23T08:41:02;94641.66;;;20.82;57.98
45129;BME280;35512;56.312;101.728;2022-07-23T08:43:33;94646.09;;;20.80;57.84
45129;BME280;35512;56.312;101.728;2022-07-23T08:46:04;94645.25;;;20.73;57.76
45129;BME280;35512;56.312;101.728;2022-07-23T08:48:35;94646.66;;;20.69;57.77
45129;BME280;35512;56.312;101.728;2022-07-23T08:51:07;94650.16;;;20.69;57.55
45129;BME280;35512;56.312;101.728;2022-07-23T08:53:37;94654.78;;;20.63;57.63
45129;BME280;35512;56.312;101.728;2022-07-23T08:56:09;94648.78;;;20.35;58.03
45129;BME280;35512;56.312;101.728;2022-07-23T08:58:38;94660.25;;;20.09;58.32
45129;BME280;35512;56.312;101.728;2022-07-23T09:01:07;94656.94;;;19.81;58.95
45129;BME280;35512;56.312;101.728;2022-07-23T09:03:37;94664.97;;;19.51;59.91
45129;BME280;35512;56.312;101.728;2022-07-23T09:06:07;94667.53;;;19.21;60.48
45129;BME280;35512;56.312;101.728;2022-07-23T09:08:38;94672.31;;;19.02;61.44
45129;BME280;35512;56.312;101.728;2022-07-23T09:11:12;94663.09;;;18.90;61.72
45129;BME280;35512;56.312;101.728;2022-07-23T09:13:52;94674.78;;;18.72;62.28
45129;BME280;35512;56.312;101.728;2022-07-23T09:21:35;94681.34;;;18.28;64.42
45129;BME280;35512;56.312;101.728;2022-07-23T09:24:06;94675.13;;;18.28;64.68
45129;BME280;35512;56.312;101.728;2022-07-23T09:26:45;94682.72;;;18.33;64.78
45129;BME280;35512;56.312;101.728;2022-07-23T09:29:24;94684.53;;;18.45;64.65
45129;BME280;35512;56.312;101.728;2022-07-23T09:32:01;94684.69;;;18.60;64.91
45129;BME280;35512;56.312;101.728;2022-07-23T09:34:35;94685.28;;;18.64;65.04
45129;BME280;35512;56.312;101.728;2022-07-23T09:37:16;94694.41;;;18.61;65.46
45129;BME280;35512;56.312;101.728;2022-07-23T09:39:50;94695.44;;;18.64;65.69
45129;BME280;35512;56.312;101.728;2022-07-23T09:42:29;94700.00;;;18.67;65.79
45129;BME280;35512;56.312;101.728;2022-07-23T09:44:59;94692.56;;;18.67;65.94
45129;BME280;35512;56.312;101.728;2022-07-23T09:47:31;94700.63;;;18.71;66.17
45129;BME280;35512;56.312;101.728;2022-07-23T09:50:09;94703.81;;;18.69;66.75
45129;BME280;35512;56.312;101.728;2022-07-23T09:52:49;94689.38;;;18.69;67.22
45129;BME280;35512;56.312;101.728;2022-07-23T09:55:27;94695.28;;;18.67;67.43
45129;BME280;35512;56.312;101.728;2022-07-23T09:58:03;94688.47;;;18.63;67.88
45129;BME280;35512;56.312;101.728;2022-07-23T10:00:34;94681.63;;;18.58;68.25
45129;BME280;35512;56.312;101.728;2022-07-23T10:03:06;94680.88;;;18.57;68.54
45129;BME280;35512;56.312;101.728;2022-07-23T10:05:55;94677.69;;;18.59;68.40
45129;BME280;35512;56.312;101.728;2022-07-23T10:08:46;94677.53;;;18.63;68.68
45129;BME280;35512;56.312;101.728;2022-07-23T10:11:49;94678.28;;;18.63;68.86
45129;BME280;35512;56.312;101.728;2022-07-23T10:14:39;94678.00;;;18.61;68.87
45129;BME280;35512;56.312;101.728;2022-07-23T10:17:09;94679.50;;;18.62;68.82
45129;BME280;35512;56.312;101.728;2022-07-23T10:19:38;94688.75;;;18.65;69.16
45129;BME280;35512;56.312;101.728;2022-07-23T10:22:29;94687.09;;;18.67;69.66
45129;BME280;35512;56.312;101.728;2022-07-23T10:33:54;94694.50;;;18.85;69.89
45129;BME280;35512;56.312;101.728;2022-07-23T10:36:51;94691.97;;;18.91;69.81
45129;BME280;35512;56.312;101.728;2022-07-23T10:39:30;94693.31;;;18.96;69.18
45129;BME280;35512;56.312;101.728;2022-07-23T10:42:11;94700.72;;;19.04;69.90
45129;BME280;35512;56.312;101.728;2022-07-23T10:44:47;94694.94;;;19.12;69.37
45129;BME280;35512;56.312;101.728;2022-07-23T10:47:33;94700.22;;;19.15;69.62
45129;BME280;35512;56.312;101.728;2022-07-23T10:50:26;94715.28;;;19.20;69.08
45129;BME280;35512;56.312;101.728;2022-07-23T10:58:06;94705.22;;;19.26;69.18
45129;BME280;35512;56.312;101.728;2022-07-23T11:00:37;94701.53;;;19.29;69.13
45129;BME280;35512;56.312;101.728;2022-07-23T11:03:28;94705.50;;;19.37;69.55
45129;BME280;35512;56.312;101.728;2022-07-23T11:05:58;94703.94;;;19.46;69.12
45129;BME280;35512;56.312;101.728;2022-07-23T11:08:27;94703.00;;;19.49;69.11
45129;BME280;35512;56.312;101.728;2022-07-23T11:11:08;94707.59;;;19.42;69.36
45129;BME280;35512;56.312;101.728;2022-07-23T11:13:41;94713.72;;;19.37;69.25
45129;BME280;35512;56.312;101.728;2022-07-23T11:24:12;94723.03;;;19.21;69.30
45129;BME280;35512;56.312;101.728;2022-07-23T11:26:58;94720.47;;;19.08;69.62
45129;BME280;35512;56.312;101.728;2022-07-23T11:32:05;94735.38;;;18.98;69.92
45129;BME280;35512;56.312;101.728;2022-07-23T11:34:40;94750.59;;;18.99;69.82
45129;BME280;35512;56.312;101.728;2022-07-23T11:37:12;94743.47;;;18.92;69.95
45129;BME280;35512;56.312;101.728;2022-07-23T11:39:57;94749.50;;;18.87;70.19
45129;BME280;35512;56.312;101.728;2022-07-23T11:42:27;94753.78;;;18.88;70.13
45129;BME280;35512;56.312;101.728;2022-07-23T11:44:58;94756.81;;;18.90;70.25
45129;BME280;35512;56.312;101.728;2022-07-23T11:47:27;94762.28;;;18.90;70.35
45129;BME280;35512;56.312;101.728;2022-07-23T11:50:01;94756.19;;;18.86;70.56
45129;BME280;35512;56.312;101.728;2022-07-23T11:52:31;94762.75;;;18.89;70.60
45129;BME280;35512;56.312;101.728;2022-07-23T11:55:11;94771.28;;;18.91;70.87
45129;BME280;35512;56.312;101.728;2022-07-23T11:57:41;94766.53;;;18.91;70.62
45129;BME280;35512;56.312;101.728;2022-07-23T12:00:17;94772.16;;;18.97;70.62
45129;BME280;35512;56.312;101.728;2022-07-23T12:02:54;94770.94;;;18.98;70.74
45129;BME280;35512;56.312;101.728;2022-07-23T12:05:35;94771.56;;;19.02;70.67
45129;BME280;35512;56.312;101.728;2022-07-23T12:08:06;94769.09;;;19.04;70.56
45129;BME280;35512;56.312;101.728;2022-07-23T12:10:44;94779.91;;;19.08;70.79
45129;BME280;35512;56.312;101.728;2022-07-23T12:13:17;94784.63;;;19.07;70.67
45129;BME280;35512;56.312;101.728;2022-07-23T12:15:51;94788.84;;;19.08;70.70
45129;BME280;35512;56.312;101.728;2022-07-23T12:18:23;94773.03;;;19.13;70.59
45129;BME280;35512;56.312;101.728;2022-07-23T12:20:54;94779.44;;;19.19;70.53
45129;BME280;35512;56.312;101.728;2022-07-23T12:23:25;94776.69;;;19.19;70.61
45129;BME280;35512;56.312;101.728;2022-07-23T12:25:55;94785.19;;;19.21;70.62
45129;BME280;35512;56.312;101.728;2022-07-23T12:28:31;94783.38;;;19.18;70.54
45129;BME280;35512;56.312;101.728;2022-07-23T12:31:01;94780.03;;;19.14;70.69
45129;BME280;35512;56.312;101.728;2022-07-23T12:33:32;94777.16;;;19.08;70.59
45129;BME280;35512;56.312;101.728;2022-07-23T12:36:03;94780.03;;;19.04;70.55
45129;BME280;35512;56.312;101.728;2022-07-23T12:38:44;94775.97;;;19.00;70.88
45129;BME280;35512;56.312;101.728;2022-07-23T12:41:15;94774.91;;;18.97;70.69
45129;BME280;35512;56.312;101.728;2022-07-23T12:43:45;94781.56;;;18.96;71.15
45129;BME280;35512;56.312;101.728;2022-07-23T12:46:20;94769.13;;;18.95;71.07
45129;BME280;35512;56.312;101.728;2022-07-23T12:51:26;94785.22;;;18.93;71.19
45129;BME280;35512;56.312;101.728;2022-07-23T12:54:09;94774.44;;;18.89;71.44
45129;BME280;35512;56.312;101.728;2022-07-23T12:56:39;94776.84;;;18.87;71.26
45129;BME280;35512;56.312;101.728;2022-07-23T12:59:15;94777.63;;;18.88;71.10
45129;BME280;35512;56.312;101.728;2022-07-23T13:01:56;94777.78;;;18.84;71.47
45129;BME280;35512;56.312;101.728;2022-07-23T13:04:30;94784.44;;;18.83;71.19
45129;BME280;35512;56.312;101.728;2022-07-23T13:07:02;94778.38;;;18.79;71.13
45129;BME280;35512;56.312;101.728;2022-07-23T13:09:33;94784.16;;;18.72;71.12
45129;BME280;35512;56.312;101.728;2022-07-23T13:12:09;94777.91;;;18.62;71.35
45129;BME280;35512;56.312;101.728;2022-07-23T13:14:38;94776.09;;;18.50;71.29
45129;BME280;35512;56.312;101.728;2022-07-23T13:17:09;94785.19;;;18.37;71.47
45129;BME280;35512;56.312;101.728;2022-07-23T13:19:38;94780.75;;;18.21;71.65
45129;BME280;35512;56.312;101.728;2022-07-23T13:22:06;94784.22;;;18.13;71.47
45129;BME280;35512;56.312;101.728;2022-07-23T13:24:37;94789.38;;;18.01;71.86
45129;BME280;35512;56.312;101.728;2022-07-23T13:27:07;94783.53;;;17.90;71.92
45129;BME280;35512;56.312;101.728;2022-07-23T13:29:40;94789.59;;;17.85;72.10
45129;BME280;35512;56.312;101.728;2022-07-23T13:32:12;94791.81;;;17.77;72.08
45129;BME280;35512;56.312;101.728;2022-07-23T13:34:41;94794.84;;;17.70;72.00
45129;BME280;35512;56.312;101.728;2022-07-23T13:37:11;94793.88;;;17.64;72.27